sensor_id;sensor_type;location;lat;lon;timestamp;P1;durP1;ratioP1;P2;durP2;ratioP2
40116;SDS011;25829;50.228;18.936;2022-12-29T00:00:28;9.43;;;5.23;;
40116;SDS011;25829;50.228;18.936;2022-12-29T00:03:29;8.90;;;4.87;;
40116;SDS011;25829;50.228;18.936;2022-12-29T00:06:29;8.50;;;4.73;;
40116;SDS011;25829;50.228;18.936;2022-12-29T00:09:31;9.13;;;4.53;;
40116;SDS011;25829;50.228;18.936;2022-12-29T00:12:32;8.67;;;4.67;;
40116;SDS011;25829;50.228;18.936;2022-12-29T00:15:52;8.57;;;4.53;;
40116;SDS011;25829;50.228;18.936;2022-12-29T00:18:53;8.90;;;4.10;;
40116;SDS011;25829;50.228;18.936;2022-12-29T00:21:54;7.83;;;5.10;;
40116;SDS011;25829;50.228;18.936;2022-12-29T00:25:13;8.13;;;4.50;;
40116;SDS011;25829;50.228;18.936;2022-12-29T00:28:33;9.90;;;5.47;;
40116;SDS011;25829;50.228;18.936;2022-12-29T00:31:52;9.63;;;4.77;;
40116;SDS011;25829;50.228;18.936;2022-12-29T00:35:12;9.20;;;5.23;;
40116;SDS011;25829;50.228;18.936;2022-12-29T00:38:21;10.77;;;5.13;;
40116;SDS011;25829;50.228;18.936;2022-12-29T00:41:40;8.47;;;4.80;;
40116;SDS011;25829;50.228;18.936;2022-12-29T00:44:59;9.87;;;5.30;;
40116;SDS011;25829;50.228;18.936;2022-12-29T00:48:00;8.23;;;4.60;;
40116;SDS011;25829;50.228;18.936;2022-12-29T00:51:01;9.57;;;5.90;;
40116;SDS011;25829;50.228;18.936;2022-12-29T00:54:01;9.40;;;5.77;;
40116;SDS011;25829;50.228;18.936;2022-12-29T00:57:03;12.97;;;5.83;;
40116;SDS011;25829;50.228;18.936;2022-12-29T01:00:05;12.03;;;6.03;;
40116;SDS011;25829;50.228;18.936;2022-12-29T01:03:06;9.37;;;5.60;;
40116;SDS011;25829;50.228;18.936;2022-12-29T01:06:08;12.93;;;7.33;;
40116;SDS011;25829;50.228;18.936;2022-12-29T01:09:11;12.30;;;6.60;;
40116;SDS011;25829;50.228;18.936;2022-12-29T01:12:32;14.47;;;7.30;;
40116;SDS011;25829;50.228;18.936;2022-12-29T01:15:54;12.70;;;6.43;;
40116;SDS011;25829;50.228;18.936;2022-12-29T01:18:55;10.63;;;7.23;;
40116;SDS011;25829;50.228;18.936;2022-12-29T01:21:56;11.40;;;6.53;;
40116;SDS011;25829;50.228;18.936;2022-12-29T01:24:57;15.00;;;7.83;;
40116;SDS011;25829;50.228;18.936;2022-12-29T01:27:57;13.53;;;7.77;;
40116;SDS011;25829;50.228;18.936;2022-12-29T01:31:00;11.93;;;7.20;;
40116;SDS011;25829;50.228;18.936;2022-12-29T01:34:01;13.90;;;7.27;;
40116;SDS011;25829;50.228;18.936;2022-12-29T01:37:02;18.70;;;7.30;;
40116;SDS011;25829;50.228;18.936;2022-12-29T01:40:03;13.93;;;7.97;;
40116;SDS011;25829;50.228;18.936;2022-12-29T01:43:07;15.40;;;8.03;;
40116;SDS011;25829;50.228;18.936;2022-12-29T01:49:22;13.50;;;8.07;;
40116;SDS011;25829;50.228;18.936;2022-12-29T01:52:28;9.63;;;6.10;;
40116;SDS011;25829;50.228;18.936;2022-12-29T01:55:33;9.83;;;6.27;;
40116;SDS011;25829;50.228;18.936;2022-12-29T01:58:39;13.17;;;6.57;;
40116;SDS011;25829;50.228;18.936;2022-12-29T02:01:45;14.50;;;6.57;;
40116;SDS011;25829;50.228;18.936;2022-12-29T02:04:46;11.43;;;6.40;;
40116;SDS011;25829;50.228;18.936;2022-12-29T02:07:51;9.27;;;6.13;;
40116;SDS011;25829;50.228;18.936;2022-12-29T02:10:52;12.97;;;6.30;;
40116;SDS011;25829;50.228;18.936;2022-12-29T02:13:56;10.60;;;5.33;;
40116;SDS011;25829;50.228;18.936;2022-12-29T02:20:16;9.93;;;5.40;;
40116;SDS011;25829;50.228;18.936;2022-12-29T02:23:55;11.50;;;5.60;;
40116;SDS011;25829;50.228;18.936;2022-12-29T02:43:49;8.07;;;4.77;;
40116;SDS011;25829;50.228;18.936;2022-12-29T02:47:14;9.00;;;4.77;;
40116;SDS011;25829;50.228;18.936;2022-12-29T02:50:47;8.90;;;5.50;;
40116;SDS011;25829;50.228;18.936;2022-12-29T02:54:01;8.10;;;5.00;;
40116;SDS011;25829;50.228;18.936;2022-12-29T02:57:40;7.97;;;4.93;;
40116;SDS011;25829;50.228;18.936;2022-12-29T03:00:48;7.10;;;4.47;;
40116;SDS011;25829;50.228;18.936;2022-12-29T03:04:03;9.33;;;5.23;;
40116;SDS011;25829;50.228;18.936;2022-12-29T03:07:13;6.47;;;4.60;;
40116;SDS011;25829;50.228;18.936;2022-12-29T03:13:52;8.47;;;4.60;;
40116;SDS011;25829;50.228;18.936;2022-12-29T03:21:00;6.77;;;4.10;;
40116;SDS011;25829;50.228;18.936;2022-12-29T03:24:06;7.17;;;5.10;;
40116;SDS011;25829;50.228;18.936;2022-12-29T03:27:08;5.63;;;4.70;;
40116;SDS011;25829;50.228;18.936;2022-12-29T03:30:16;7.30;;;4.40;;
40116;SDS011;25829;50.228;18.936;2022-12-29T03:33:20;8.33;;;4.40;;
40116;SDS011;25829;50.228;18.936;2022-12-29T03:36:30;9.13;;;4.47;;
40116;SDS011;25829;50.228;18.936;2022-12-29T03:39:38;10.20;;;5.83;;
40116;SDS011;25829;50.228;18.936;2022-12-29T03:42:39;9.07;;;5.20;;
40116;SDS011;25829;50.228;18.936;2022-12-29T03:45:42;6.63;;;4.87;;
40116;SDS011;25829;50.228;18.936;2022-12-29T03:48:43;6.17;;;4.63;;
40116;SDS011;25829;50.228;18.936;2022-12-29T03:51:44;8.80;;;5.40;;
40116;SDS011;25829;50.228;18.936;2022-12-29T03:54:47;9.63;;;6.00;;
40116;SDS011;25829;50.228;18.936;2022-12-29T03:57:48;16.43;;;11.00;;
40116;SDS011;25829;50.228;18.936;2022-12-29T04:00:57;27.93;;;16.23;;
40116;SDS011;25829;50.228;18.936;2022-12-29T04:03:58;11.83;;;7.83;;
40116;SDS011;25829;50.228;18.936;2022-12-29T04:06:59;14.03;;;8.90;;
40116;SDS011;25829;50.228;18.936;2022-12-29T04:10:00;10.73;;;4.90;;
40116;SDS011;25829;50.228;18.936;2022-12-29T04:13:02;8.60;;;5.63;;
40116;SDS011;25829;50.228;18.936;2022-12-29T04:16:03;8.60;;;5.80;;
40116;SDS011;25829;50.228;18.936;2022-12-29T04:19:05;8.50;;;5.47;;
40116;SDS011;25829;50.228;18.936;2022-12-29T04:22:08;6.10;;;5.00;;
40116;SDS011;25829;50.228;18.936;2022-12-29T04:25:09;7.90;;;5.33;;
40116;SDS011;25829;50.228;18.936;2022-12-29T04:28:10;8.97;;;5.57;;
40116;SDS011;25829;50.228;18.936;2022-12-29T04:31:30;6.00;;;4.23;;
40116;SDS011;25829;50.228;18.936;2022-12-29T04:34:30;7.30;;;4.60;;
40116;SDS011;25829;50.228;18.936;2022-12-29T04:37:32;7.63;;;4.53;;
40116;SDS011;25829;50.228;18.936;2022-12-29T04:40:33;6.70;;;4.90;;
40116;SDS011;25829;50.228;18.936;2022-12-29T04:43:33;9.63;;;5.00;;
40116;SDS011;25829;50.228;18.936;2022-12-29T04:46:49;15.37;;;9.77;;
40116;SDS011;25829;50.228;18.936;2022-12-29T04:50:04;13.67;;;8.20;;
40116;SDS011;25829;50.228;18.936;2022-12-29T04:53:14;16.37;;;10.60;;
40116;SDS011;25829;50.228;18.936;2022-12-29T04:56:17;25.70;;;16.37;;
40116;SDS011;25829;50.228;18.936;2022-12-29T04:59:18;30.00;;;18.37;;
40116;SDS011;25829;50.228;18.936;2022-12-29T05:02:22;27.53;;;17.90;;
40116;SDS011;25829;50.228;18.936;2022-12-29T05:05:24;33.43;;;20.67;;
40116;SDS011;25829;50.228;18.936;2022-12-29T05:08:25;43.67;;;25.77;;
40116;SDS011;25829;50.228;18.936;2022-12-29T05:11:26;39.50;;;25.07;;
40116;SDS011;25829;50.228;18.936;2022-12-29T05:14:28;33.40;;;22.17;;
40116;SDS011;25829;50.228;18.936;2022-12-29T05:17:29;31.07;;;18.03;;
40116;SDS011;25829;50.228;18.936;2022-12-29T05:20:31;16.63;;;11.30;;
40116;SDS011;25829;50.228;18.936;2022-12-29T05:23:32;11.87;;;8.00;;
40116;SDS011;25829;50.228;18.936;2022-12-29T05:26:36;8.60;;;6.40;;
40116;SDS011;25829;50.228;18.936;2022-12-29T05:29:55;7.93;;;5.67;;
40116;SDS011;25829;50.228;18.936;2022-12-29T05:32:56;10.63;;;7.43;;
40116;SDS011;25829;50.228;18.936;2022-12-29T05:36:03;10.20;;;6.63;;
40116;SDS011;25829;50.228;18.936;2022-12-29T05:39:05;11.77;;;7.80;;
40116;SDS011;25829;50.228;18.936;2022-12-29T05:42:08;13.97;;;8.53;;
40116;SDS011;25829;50.228;18.936;2022-12-29T05:45:41;13.40;;;9.67;;
40116;SDS011;25829;50.228;18.936;2022-12-29T05:49:11;9.73;;;7.57;;
40116;SDS011;25829;50.228;18.936;2022-12-29T05:52:41;12.73;;;8.00;;
40116;SDS011;25829;50.228;18.936;2022-12-29T05:55:43;12.93;;;7.60;;
40116;SDS011;25829;50.228;18.936;2022-12-29T05:58:45;9.27;;;6.83;;
40116;SDS011;25829;50.228;18.936;2022-12-29T06:01:46;10.87;;;7.13;;
40116;SDS011;25829;50.228;18.936;2022-12-29T06:04:47;8.83;;;6.97;;
40116;SDS011;25829;50.228;18.936;2022-12-29T06:07:47;8.43;;;7.50;;
40116;SDS011;25829;50.228;18.936;2022-12-29T06:10:50;8.83;;;7.13;;
40116;SDS011;25829;50.228;18.936;2022-12-29T06:13:51;9.00;;;5.10;;
40116;SDS011;25829;50.228;18.936;2022-12-29T06:16:52;8.03;;;5.80;;
40116;SDS011;25829;50.228;18.936;2022-12-29T06:19:53;7.83;;;5.33;;
40116;SDS011;25829;50.228;18.936;2022-12-29T06:22:54;9.00;;;6.07;;
40116;SDS011;25829;50.228;18.936;2022-12-29T06:25:57;8.87;;;5.97;;
40116;SDS011;25829;50.228;18.936;2022-12-29T06:28:57;8.13;;;5.63;;
40116;SDS011;25829;50.228;18.936;2022-12-29T06:31:58;14.47;;;7.93;;
40116;SDS011;25829;50.228;18.936;2022-12-29T06:35:00;12.60;;;7.67;;
40116;SDS011;25829;50.228;18.936;2022-12-29T06:38:01;12.33;;;7.03;;
40116;SDS011;25829;50.228;18.936;2022-12-29T06:41:02;12.07;;;5.97;;
40116;SDS011;25829;50.228;18.936;2022-12-29T06:44:08;9.63;;;5.60;;
40116;SDS011;25829;50.228;18.936;2022-12-29T06:47:29;8.20;;;5.10;;
40116;SDS011;25829;50.228;18.936;2022-12-29T06:50:29;7.10;;;4.70;;
40116;SDS011;25829;50.228;18.936;2022-12-29T06:53:30;7.97;;;4.50;;
40116;SDS011;25829;50.228;18.936;2022-12-29T06:56:31;8.90;;;4.97;;
40116;SDS011;25829;50.228;18.936;2022-12-29T06:59:32;7.33;;;4.50;;
40116;SDS011;25829;50.228;18.936;2022-12-29T07:02:32;9.13;;;4.93;;
40116;SDS011;25829;50.228;18.936;2022-12-29T07:05:33;8.37;;;5.57;;
40116;SDS011;25829;50.228;18.936;2022-12-29T07:08:34;8.27;;;4.77;;
40116;SDS011;25829;50.228;18.936;2022-12-29T07:11:35;11.63;;;5.33;;
40116;SDS011;25829;50.228;18.936;2022-12-29T07:14:36;7.77;;;4.83;;
40116;SDS011;25829;50.228;18.936;2022-12-29T07:17:37;11.77;;;4.57;;
40116;SDS011;25829;50.228;18.936;2022-12-29T07:20:38;10.50;;;5.37;;
40116;SDS011;25829;50.228;18.936;2022-12-29T07:23:39;6.83;;;4.60;;
40116;SDS011;25829;50.228;18.936;2022-12-29T07:26:39;6.30;;;4.30;;
40116;SDS011;25829;50.228;18.936;2022-12-29T07:29:41;8.70;;;5.27;;
40116;SDS011;25829;50.228;18.936;2022-12-29T07:32:42;11.10;;;5.40;;
40116;SDS011;25829;50.228;18.936;2022-12-29T07:35:43;7.80;;;5.47;;
40116;SDS011;25829;50.228;18.936;2022-12-29T07:38:46;9.10;;;5.83;;
40116;SDS011;25829;50.228;18.936;2022-12-29T07:41:47;11.13;;;5.70;;
40116;SDS011;25829;50.228;18.936;2022-12-29T07:44:52;7.47;;;5.30;;
40116;SDS011;25829;50.228;18.936;2022-12-29T07:48:00;25.23;;;8.30;;
40116;SDS011;25829;50.228;18.936;2022-12-29T07:51:02;35.13;;;7.80;;
40116;SDS011;25829;50.228;18.936;2022-12-29T07:54:03;11.10;;;5.50;;
40116;SDS011;25829;50.228;18.936;2022-12-29T07:57:04;7.00;;;4.80;;
40116;SDS011;25829;50.228;18.936;2022-12-29T08:00:06;14.97;;;6.40;;
40116;SDS011;25829;50.228;18.936;2022-12-29T08:03:12;11.07;;;5.93;;
40116;SDS011;25829;50.228;18.936;2022-12-29T08:06:12;9.17;;;5.13;;
40116;SDS011;25829;50.228;18.936;2022-12-29T08:09:13;13.40;;;5.17;;
40116;SDS011;25829;50.228;18.936;2022-12-29T08:12:14;9.30;;;5.80;;
40116;SDS011;25829;50.228;18.936;2022-12-29T08:15:15;9.17;;;5.57;;
40116;SDS011;25829;50.228;18.936;2022-12-29T08:18:18;9.70;;;5.60;;
40116;SDS011;25829;50.228;18.936;2022-12-29T08:21:21;14.63;;;5.93;;
40116;SDS011;25829;50.228;18.936;2022-12-29T08:24:22;9.20;;;5.73;;
40116;SDS011;25829;50.228;18.936;2022-12-29T08:27:23;12.07;;;6.33;;
40116;SDS011;25829;50.228;18.936;2022-12-29T08:30:24;12.87;;;6.17;;
40116;SDS011;25829;50.228;18.936;2022-12-29T08:33:25;10.00;;;6.20;;
40116;SDS011;25829;50.228;18.936;2022-12-29T08:36:26;14.83;;;6.23;;
40116;SDS011;25829;50.228;18.936;2022-12-29T08:39:27;11.73;;;6.17;;
40116;SDS011;25829;50.228;18.936;2022-12-29T08:42:29;15.40;;;6.90;;
40116;SDS011;25829;50.228;18.936;2022-12-29T08:45:31;12.80;;;7.07;;
40116;SDS011;25829;50.228;18.936;2022-12-29T08:48:32;15.10;;;7.87;;
40116;SDS011;25829;50.228;18.936;2022-12-29T08:51:33;14.37;;;7.60;;
40116;SDS011;25829;50.228;18.936;2022-12-29T08:54:34;15.43;;;8.70;;
40116;SDS011;25829;50.228;18.936;2022-12-29T08:57:35;11.17;;;8.20;;
40116;SDS011;25829;50.228;18.936;2022-12-29T09:00:44;19.17;;;8.23;;
40116;SDS011;25829;50.228;18.936;2022-12-29T09:03:45;17.93;;;8.27;;
40116;SDS011;25829;50.228;18.936;2022-12-29T09:06:47;11.77;;;7.73;;
40116;SDS011;25829;50.228;18.936;2022-12-29T09:09:47;15.23;;;8.50;;
40116;SDS011;25829;50.228;18.936;2022-12-29T09:12:50;14.20;;;8.27;;
40116;SDS011;25829;50.228;18.936;2022-12-29T09:15:57;14.43;;;7.60;;
40116;SDS011;25829;50.228;18.936;2022-12-29T09:18:58;14.40;;;7.53;;
40116;SDS011;25829;50.228;18.936;2022-12-29T09:21:59;11.83;;;7.53;;
40116;SDS011;25829;50.228;18.936;2022-12-29T09:25:00;14.27;;;6.93;;
40116;SDS011;25829;50.228;18.936;2022-12-29T09:28:01;12.40;;;7.17;;
40116;SDS011;25829;50.228;18.936;2022-12-29T09:31:06;15.00;;;7.27;;
40116;SDS011;25829;50.228;18.936;2022-12-29T09:34:07;12.70;;;7.00;;
40116;SDS011;25829;50.228;18.936;2022-12-29T09:37:08;12.60;;;7.47;;
40116;SDS011;25829;50.228;18.936;2022-12-29T09:40:25;9.57;;;7.10;;
40116;SDS011;25829;50.228;18.936;2022-12-29T09:50:29;12.43;;;6.93;;
40116;SDS011;25829;50.228;18.936;2022-12-29T09:53:36;10.40;;;7.30;;
40116;SDS011;25829;50.228;18.936;2022-12-29T09:57:01;12.73;;;7.33;;
40116;SDS011;25829;50.228;18.936;2022-12-29T10:00:03;16.27;;;7.27;;
40116;SDS011;25829;50.228;18.936;2022-12-29T10:03:18;10.97;;;6.93;;
40116;SDS011;25829;50.228;18.936;2022-12-29T10:06:32;11.17;;;6.97;;
40116;SDS011;25829;50.228;18.936;2022-12-29T10:09:48;14.30;;;7.97;;
40116;SDS011;25829;50.228;18.936;2022-12-29T10:19:35;12.27;;;7.10;;
40116;SDS011;25829;50.228;18.936;2022-12-29T10:26:13;14.68;;;7.50;;
40116;SDS011;25829;50.228;18.936;2022-12-29T10:29:32;12.15;;;7.00;;
40116;SDS011;25829;50.228;18.936;2022-12-29T10:32:41;12.50;;;7.50;;
40116;SDS011;25829;50.228;18.936;2022-12-29T10:35:45;11.13;;;7.60;;
40116;SDS011;25829;50.228;18.936;2022-12-29T10:45:21;11.68;;;7.13;;
40116;SDS011;25829;50.228;18.936;2022-12-29T10:48:30;11.52;;;7.13;;
40116;SDS011;25829;50.228;18.936;2022-12-29T10:51:37;9.18;;;5.93;;
40116;SDS011;25829;50.228;18.936;2022-12-29T10:54:49;7.55;;;5.60;;
40116;SDS011;25829;50.228;18.936;2022-12-29T10:58:07;9.65;;;6.38;;
40116;SDS011;25829;50.228;18.936;2022-12-29T11:01:12;7.90;;;6.18;;
40116;SDS011;25829;50.228;18.936;2022-12-29T11:04:22;10.60;;;6.75;;
40116;SDS011;25829;50.228;18.936;2022-12-29T11:07:29;12.40;;;7.27;;
40116;SDS011;25829;50.228;18.936;2022-12-29T11:13:50;12.97;;;7.93;;
40116;SDS011;25829;50.228;18.936;2022-12-29T11:16:57;11.90;;;7.70;;
40116;SDS011;25829;50.228;18.936;2022-12-29T11:20:03;11.43;;;7.40;;
40116;SDS011;25829;50.228;18.936;2022-12-29T11:23:38;11.93;;;7.40;;
40116;SDS011;25829;50.228;18.936;2022-12-29T11:26:43;12.87;;;8.13;;
40116;SDS011;25829;50.228;18.936;2022-12-29T11:29:47;14.03;;;7.97;;
40116;SDS011;25829;50.228;18.936;2022-12-29T11:37:01;14.33;;;8.00;;
40116;SDS011;25829;50.228;18.936;2022-12-29T11:40:19;12.77;;;7.70;;
40116;SDS011;25829;50.228;18.936;2022-12-29T11:47:20;12.80;;;7.63;;
40116;SDS011;25829;50.228;18.936;2022-12-29T11:50:54;14.63;;;7.83;;
40116;SDS011;25829;50.228;18.936;2022-12-29T11:58:48;9.80;;;6.27;;
40116;SDS011;25829;50.228;18.936;2022-12-29T12:01:50;8.87;;;6.00;;
40116;SDS011;25829;50.228;18.936;2022-12-29T12:04:59;8.67;;;6.10;;
40116;SDS011;25829;50.228;18.936;2022-12-29T12:08:21;10.00;;;6.53;;
40116;SDS011;25829;50.228;18.936;2022-12-29T12:11:39;12.33;;;6.60;;
40116;SDS011;25829;50.228;18.936;2022-12-29T12:14:51;9.97;;;6.30;;
40116;SDS011;25829;50.228;18.936;2022-12-29T12:18:34;9.67;;;6.47;;
40116;SDS011;25829;50.228;18.936;2022-12-29T12:21:59;11.27;;;6.50;;
40116;SDS011;25829;50.228;18.936;2022-12-29T12:25:34;8.83;;;6.27;;
40116;SDS011;25829;50.228;18.936;2022-12-29T12:28:48;9.60;;;6.27;;
40116;SDS011;25829;50.228;18.936;2022-12-29T12:31:55;13.40;;;6.37;;
40116;SDS011;25829;50.228;18.936;2022-12-29T12:35:01;10.90;;;7.03;;
40116;SDS011;25829;50.228;18.936;2022-12-29T12:41:13;11.73;;;7.80;;
40116;SDS011;25829;50.228;18.936;2022-12-29T12:44:28;11.70;;;7.80;;
40116;SDS011;25829;50.228;18.936;2022-12-29T12:58:45;15.10;;;9.67;;
40116;SDS011;25829;50.228;18.936;2022-12-29T13:01:57;15.80;;;10.00;;
40116;SDS011;25829;50.228;18.936;2022-12-29T13:21:10;17.43;;;10.83;;
40116;SDS011;25829;50.228;18.936;2022-12-29T13:43:13;16.70;;;9.03;;
40116;SDS011;25829;50.228;18.936;2022-12-29T13:46:18;17.90;;;9.73;;
40116;SDS011;25829;50.228;18.936;2022-12-29T13:49:56;18.60;;;9.47;;
40116;SDS011;25829;50.228;18.936;2022-12-29T13:59:11;19.20;;;9.67;;
40116;SDS011;25829;50.228;18.936;2022-12-29T14:03:17;16.57;;;9.97;;
40116;SDS011;25829;50.228;18.936;2022-12-29T14:06:21;14.17;;;8.97;;
40116;SDS011;25829;50.228;18.936;2022-12-29T14:09:36;16.80;;;10.00;;
40116;SDS011;25829;50.228;18.936;2022-12-29T14:12:41;18.17;;;10.47;;
40116;SDS011;25829;50.228;18.936;2022-12-29T14:15:45;19.17;;;11.17;;
40116;SDS011;25829;50.228;18.936;2022-12-29T14:18:50;18.93;;;10.57;;
40116;SDS011;25829;50.228;18.936;2022-12-29T14:22:12;18.70;;;11.73;;
40116;SDS011;25829;50.228;18.936;2022-12-29T14:35:37;17.10;;;10.20;;
40116;SDS011;25829;50.228;18.936;2022-12-29T14:38:44;21.10;;;10.60;;
40116;SDS011;25829;50.228;18.936;2022-12-29T14:41:46;17.93;;;10.07;;
40116;SDS011;25829;50.228;18.936;2022-12-29T14:45:06;18.87;;;10.07;;
40116;SDS011;25829;50.228;18.936;2022-12-29T14:48:32;15.97;;;10.17;;
40116;SDS011;25829;50.228;18.936;2022-12-29T14:51:43;21.37;;;12.57;;
40116;SDS011;25829;50.228;18.936;2022-12-29T14:54:46;19.67;;;11.13;;
40116;SDS011;25829;50.228;18.936;2022-12-29T14:57:51;18.20;;;12.20;;
40116;SDS011;25829;50.228;18.936;2022-12-29T15:00:59;40.50;;;24.57;;
40116;SDS011;25829;50.228;18.936;2022-12-29T15:15:43;22.90;;;12.67;;
40116;SDS011;25829;50.228;18.936;2022-12-29T15:18:44;19.13;;;11.83;;
40116;SDS011;25829;50.228;18.936;2022-12-29T15:21:48;18.97;;;11.43;;
40116;SDS011;25829;50.228;18.936;2022-12-29T15:24:52;13.97;;;9.00;;
40116;SDS011;25829;50.228;18.936;2022-12-29T15:27:56;12.97;;;8.33;;
40116;SDS011;25829;50.228;18.936;2022-12-29T15:31:05;14.77;;;9.43;;
40116;SDS011;25829;50.228;18.936;2022-12-29T15:58:28;12.73;;;7.77;;
40116;SDS011;25829;50.228;18.936;2022-12-29T16:01:31;14.33;;;7.60;;
40116;SDS011;25829;50.228;18.936;2022-12-29T16:04:34;12.27;;;8.60;;
40116;SDS011;25829;50.228;18.936;2022-12-29T16:07:35;12.27;;;8.00;;
40116;SDS011;25829;50.228;18.936;2022-12-29T16:10:36;12.83;;;8.40;;
40116;SDS011;25829;50.228;18.936;2022-12-29T16:13:40;13.87;;;8.27;;
40116;SDS011;25829;50.228;18.936;2022-12-29T16:16:42;14.27;;;9.07;;
40116;SDS011;25829;50.228;18.936;2022-12-29T16:19:46;20.80;;;12.17;;
40116;SDS011;25829;50.228;18.936;2022-12-29T16:22:53;28.80;;;16.10;;
40116;SDS011;25829;50.228;18.936;2022-12-29T16:25:57;18.13;;;10.83;;
40116;SDS011;25829;50.228;18.936;2022-12-29T16:29:00;14.80;;;10.03;;
40116;SDS011;25829;50.228;18.936;2022-12-29T16:32:59;16.77;;;10.03;;
40116;SDS011;25829;50.228;18.936;2022-12-29T16:35:46;17.67;;;9.90;;
40116;SDS011;25829;50.228;18.936;2022-12-29T16:38:47;21.63;;;12.27;;
40116;SDS011;25829;50.228;18.936;2022-12-29T16:41:48;14.20;;;9.87;;
40116;SDS011;25829;50.228;18.936;2022-12-29T16:45:07;12.00;;;8.30;;
40116;SDS011;25829;50.228;18.936;2022-12-29T16:48:30;15.83;;;9.73;;
40116;SDS011;25829;50.228;18.936;2022-12-29T16:51:34;14.83;;;9.50;;
40116;SDS011;25829;50.228;18.936;2022-12-29T16:54:36;16.87;;;10.67;;
40116;SDS011;25829;50.228;18.936;2022-12-29T16:57:42;17.03;;;10.17;;
40116;SDS011;25829;50.228;18.936;2022-12-29T17:04:36;20.67;;;11.70;;
40116;SDS011;25829;50.228;18.936;2022-12-29T17:07:37;19.57;;;10.97;;
40116;SDS011;25829;50.228;18.936;2022-12-29T17:10:37;18.30;;;11.63;;
40116;SDS011;25829;50.228;18.936;2022-12-29T17:13:57;20.37;;;13.13;;
40116;SDS011;25829;50.228;18.936;2022-12-29T17:16:57;22.17;;;12.90;;
40116;SDS011;25829;50.228;18.936;2022-12-29T17:20:02;22.40;;;13.80;;
40116;SDS011;25829;50.228;18.936;2022-12-29T17:23:16;27.23;;;16.30;;
40116;SDS011;25829;50.228;18.936;2022-12-29T17:26:17;29.57;;;18.20;;
40116;SDS011;25829;50.228;18.936;2022-12-29T17:29:19;28.53;;;15.20;;
40116;SDS011;25829;50.228;18.936;2022-12-29T17:39:44;23.17;;;13.60;;
40116;SDS011;25829;50.228;18.936;2022-12-29T17:46:08;27.17;;;15.33;;
40116;SDS011;25829;50.228;18.936;2022-12-29T17:49:13;26.07;;;15.73;;
40116;SDS011;25829;50.228;18.936;2022-12-29T17:52:16;24.17;;;15.20;;
40116;SDS011;25829;50.228;18.936;2022-12-29T17:55:18;23.90;;;13.80;;
40116;SDS011;25829;50.228;18.936;2022-12-29T17:58:21;25.57;;;14.57;;
40116;SDS011;25829;50.228;18.936;2022-12-29T18:05:39;21.03;;;13.20;;
40116;SDS011;25829;50.228;18.936;2022-12-29T18:15:47;27.90;;;13.80;;
40116;SDS011;25829;50.228;18.936;2022-12-29T18:31:43;16.73;;;11.50;;
40116;SDS011;25829;50.228;18.936;2022-12-29T18:34:44;19.57;;;11.97;;
40116;SDS011;25829;50.228;18.936;2022-12-29T18:37:48;16.60;;;11.27;;
40116;SDS011;25829;50.228;18.936;2022-12-29T18:40:50;15.33;;;11.00;;
40116;SDS011;25829;50.228;18.936;2022-12-29T18:43:51;29.30;;;11.90;;
40116;SDS011;25829;50.228;18.936;2022-12-29T18:46:52;19.07;;;12.10;;
40116;SDS011;25829;50.228;18.936;2022-12-29T18:58:02;22.90;;;13.30;;
40116;SDS011;25829;50.228;18.936;2022-12-29T19:05:02;20.73;;;12.10;;
40116;SDS011;25829;50.228;18.936;2022-12-29T19:08:10;22.30;;;13.57;;
40116;SDS011;25829;50.228;18.936;2022-12-29T19:11:12;18.53;;;12.50;;
40116;SDS011;25829;50.228;18.936;2022-12-29T19:14:13;23.37;;;12.27;;
40116;SDS011;25829;50.228;18.936;2022-12-29T19:17:16;22.57;;;13.47;;
40116;SDS011;25829;50.228;18.936;2022-12-29T19:20:21;19.40;;;13.30;;
40116;SDS011;25829;50.228;18.936;2022-12-29T19:24:11;22.33;;;14.07;;
40116;SDS011;25829;50.228;18.936;2022-12-29T19:27:21;20.97;;;11.73;;
40116;SDS011;25829;50.228;18.936;2022-12-29T19:34:41;21.70;;;11.47;;
40116;SDS011;25829;50.228;18.936;2022-12-29T19:37:42;17.70;;;10.33;;
40116;SDS011;25829;50.228;18.936;2022-12-29T19:40:50;17.10;;;10.60;;
40116;SDS011;25829;50.228;18.936;2022-12-29T19:44:01;14.20;;;9.93;;
40116;SDS011;25829;50.228;18.936;2022-12-29T19:50:43;11.50;;;8.30;;
40116;SDS011;25829;50.228;18.936;2022-12-29T19:53:44;14.63;;;8.87;;
40116;SDS011;25829;50.228;18.936;2022-12-29T20:01:06;11.90;;;8.87;;
40116;SDS011;25829;50.228;18.936;2022-12-29T20:07:42;15.93;;;10.33;;
40116;SDS011;25829;50.228;18.936;2022-12-29T20:15:44;13.30;;;8.53;;
40116;SDS011;25829;50.228;18.936;2022-12-29T20:25:54;16.57;;;10.03;;
40116;SDS011;25829;50.228;18.936;2022-12-29T20:28:56;15.73;;;10.10;;
40116;SDS011;25829;50.228;18.936;2022-12-29T20:31:57;14.00;;;8.83;;
40116;SDS011;25829;50.228;18.936;2022-12-29T20:34:58;12.87;;;8.23;;
40116;SDS011;25829;50.228;18.936;2022-12-29T20:37:59;13.80;;;8.40;;
40116;SDS011;25829;50.228;18.936;2022-12-29T20:41:00;12.13;;;7.77;;
40116;SDS011;25829;50.228;18.936;2022-12-29T20:44:00;12.13;;;8.47;;
40116;SDS011;25829;50.228;18.936;2022-12-29T20:47:03;16.03;;;8.63;;
40116;SDS011;25829;50.228;18.936;2022-12-29T20:50:05;14.87;;;8.67;;
40116;SDS011;25829;50.228;18.936;2022-12-29T20:53:08;12.57;;;8.33;;
40116;SDS011;25829;50.228;18.936;2022-12-29T20:56:15;12.20;;;8.37;;
40116;SDS011;25829;50.228;18.936;2022-12-29T20:59:18;14.27;;;9.30;;
40116;SDS011;25829;50.228;18.936;2022-12-29T21:02:22;13.30;;;8.37;;
40116;SDS011;25829;50.228;18.936;2022-12-29T21:05:25;16.77;;;9.43;;
40116;SDS011;25829;50.228;18.936;2022-12-29T21:08:27;18.10;;;11.33;;
40116;SDS011;25829;50.228;18.936;2022-12-29T21:11:32;17.67;;;10.80;;
40116;SDS011;25829;50.228;18.936;2022-12-29T21:14:32;16.73;;;9.80;;
40116;SDS011;25829;50.228;18.936;2022-12-29T21:17:34;14.27;;;9.67;;
40116;SDS011;25829;50.228;18.936;2022-12-29T21:20:41;14.10;;;9.33;;
40116;SDS011;25829;50.228;18.936;2022-12-29T21:23:42;17.07;;;9.77;;
40116;SDS011;25829;50.228;18.936;2022-12-29T21:26:43;15.30;;;8.97;;
40116;SDS011;25829;50.228;18.936;2022-12-29T21:29:52;12.57;;;9.07;;
40116;SDS011;25829;50.228;18.936;2022-12-29T21:32:53;13.80;;;9.07;;
40116;SDS011;25829;50.228;18.936;2022-12-29T21:36:04;15.60;;;10.20;;
40116;SDS011;25829;50.228;18.936;2022-12-29T21:43:08;13.97;;;9.10;;
40116;SDS011;25829;50.228;18.936;2022-12-29T21:46:10;23.77;;;14.03;;
40116;SDS011;25829;50.228;18.936;2022-12-29T21:52:13;16.50;;;9.30;;
40116;SDS011;25829;50.228;18.936;2022-12-29T22:02:21;17.97;;;10.30;;
40116;SDS011;25829;50.228;18.936;2022-12-29T22:05:46;15.50;;;9.23;;
40116;SDS011;25829;50.228;18.936;2022-12-29T22:19:22;12.70;;;8.57;;
40116;SDS011;25829;50.228;18.936;2022-12-29T22:22:29;14.50;;;8.63;;
40116;SDS011;25829;50.228;18.936;2022-12-29T22:25:30;14.23;;;9.27;;
40116;SDS011;25829;50.228;18.936;2022-12-29T22:28:30;11.80;;;8.70;;
40116;SDS011;25829;50.228;18.936;2022-12-29T22:31:33;12.63;;;8.80;;
40116;SDS011;25829;50.228;18.936;2022-12-29T22:34:34;15.40;;;9.30;;
40116;SDS011;25829;50.228;18.936;2022-12-29T22:37:36;14.97;;;9.27;;
40116;SDS011;25829;50.228;18.936;2022-12-29T22:40:39;15.13;;;8.80;;
40116;SDS011;25829;50.228;18.936;2022-12-29T22:43:40;15.37;;;10.77;;